Time;durP1;ratioP1;P1;durP2;ratioP2;P2;SDS_P1;SDS_P2;PMS_P1;PMS_P2;Temp;Humidity;BMP_temperature;BMP_pressure;BME280_temperature;BME280_humidity;BME280_pressure;Samples;Min_cycle;Max_cycle;Signal;HPM_P1;HPM_P2
2022/10/15 00:00:48;;;;;;;0.40;0.40;;;9.00;99.90;;;;;;5027865;28;20385;-71
2022/10/15 00:03:14;;;;;;;1.70;1.33;;;9.40;99.90;;;;;;5025745;28;20025;-72
2022/10/15 00:05:40;;;;;;;0.70;0.70;;;9.40;99.90;;;;;;5030559;28;20052;-71
2022/10/15 00:08:07;;;;;;;0.40;0.40;;;9.30;99.90;;;;;;5032501;28;20029;-71
2022/10/15 00:10:34;;;;;;;0.40;0.40;;;9.80;99.90;;;;;;5031404;28;20045;-71
2022/10/15 00:13:00;;;;;;;1.13;1.13;;;9.10;99.90;;;;;;5032401;28;20165;-71
2022/10/15 00:15:26;;;;;;;0.50;0.50;;;;;;;;;;5033435;28;20118;-70
2022/10/15 00:17:52;;;;;;;0.30;0.30;;;;;;;;;;5034406;28;20131;-71
2022/10/15 00:20:18;;;;;;;0.50;0.50;;;;;;;;;;5032977;28;20404;-71
2022/10/15 00:22:44;;;;;;;0.40;0.40;;;8.90;99.90;;;;;;5033449;28;20029;-73
2022/10/15 00:25:09;;;;;;;0.40;0.40;;;9.80;99.90;;;;;;5031616;28;20033;-71
2022/10/15 00:27:36;;;;;;;0.43;0.43;;;9.00;99.90;;;;;;5032832;28;20095;-71
2022/10/15 00:30:03;;;;;;;0.55;0.55;;;9.10;99.90;;;;;;5030790;28;20064;-71
2022/10/15 00:32:29;;;;;;;0.40;0.40;;;9.50;99.90;;;;;;5033341;28;20565;-71
2022/10/15 00:34:55;;;;;;;1.05;0.98;;;9.40;99.90;;;;;;5034988;28;20029;-71
2022/10/15 00:37:21;;;;;;;0.40;0.40;;;9.20;99.90;;;;;;5033612;28;20101;-70
2022/10/15 00:39:47;;;;;;;0.30;0.30;;;9.00;99.90;;;;;;5032736;28;20084;-70
2022/10/15 00:42:12;;;;;;;0.60;0.60;;;8.70;99.90;;;;;;5033503;28;20037;-71
2022/10/15 00:44:51;;;;;;;0.40;0.40;;;9.10;99.90;;;;;;5032253;28;20412;-72
2022/10/15 00:47:19;;;;;;;0.68;0.68;;;9.40;99.90;;;;;;5031134;28;20077;-70
2022/10/15 00:49:50;;;;;;;0.40;0.40;;;9.00;99.90;;;;;;5033346;28;20030;-71
2022/10/15 00:52:25;;;;;;;0.30;0.30;;;9.10;99.90;;;;;;5031994;28;20061;-71
2022/10/15 00:55:00;;;;;;;0.57;0.57;;;9.10;99.90;;;;;;5033744;28;20076;-70
2022/10/15 00:57:26;;;;;;;0.35;0.35;;;9.00;99.90;;;;;;5032429;28;20034;-71
2022/10/15 00:59:57;;;;;;;0.40;0.40;;;9.10;99.90;;;;;;5030220;28;20033;-72
2022/10/15 01:02:23;;;;;;;0.40;0.40;;;9.60;99.90;;;;;;5044394;28;20290;-72
2022/10/15 01:04:49;;;;;;;0.50;0.50;;;9.10;99.90;;;;;;5030806;28;20083;-70
2022/10/15 01:07:15;;;;;;;0.40;0.40;;;8.80;99.90;;;;;;5032981;28;20060;-71
2022/10/15 01:09:45;;;;;;;1.00;0.93;;;8.40;99.90;;;;;;5031651;28;20072;-71
2022/10/15 01:12:30;;;;;;;0.47;0.47;;;8.90;99.90;;;;;;5030345;28;20033;-72
2022/10/15 01:15:29;;;;;;;1.10;1.05;;;8.90;99.90;;;;;;5032777;28;20037;-70
2022/10/15 01:18:47;;;;;;;0.82;0.82;;;8.90;99.90;;;;;;5031862;28;20048;-70
2022/10/15 01:21:29;;;;;;;0.77;0.77;;;8.90;99.90;;;;;;5012297;28;20053;-72
2022/10/15 01:24:26;;;;;;;1.35;1.23;;;9.00;99.90;;;;;;5029749;28;20033;-71
2022/10/15 01:27:08;;;;;;;0.30;0.30;;;8.80;99.90;;;;;;5025239;28;20419;-71
2022/10/15 01:29:49;;;;;;;0.30;0.30;;;8.80;99.90;;;;;;5023875;28;20049;-71
2022/10/15 01:32:27;;;;;;;2.28;2.08;;;9.70;99.90;;;;;;5030263;28;20025;-70
2022/10/15 01:35:01;;;;;;;0.68;0.68;;;8.80;99.90;;;;;;5028858;28;20051;-71
2022/10/15 01:37:44;;;;;;;1.30;1.10;;;8.80;99.90;;;;;;5032109;28;20505;-71
2022/10/15 01:40:19;;;;;;;0.70;0.70;;;8.90;99.90;;;;;;5031308;28;20041;-71
2022/10/15 01:43:00;;;;;;;1.02;1.00;;;8.70;99.90;;;;;;5031563;28;20021;-70
2022/10/15 01:45:38;;;;;;;3.28;1.08;;;8.40;99.90;;;;;;5031708;28;20381;-71
2022/10/15 01:48:08;;;;;;;1.70;0.93;;;9.00;99.90;;;;;;5013688;28;20038;-71
2022/10/15 01:50:37;;;;;;;0.40;0.40;;;8.80;99.90;;;;;;5031288;28;20041;-70
2022/10/15 01:53:05;;;;;;;0.73;0.73;;;8.90;99.90;;;;;;5030541;28;20419;-71
2022/10/15 01:55:31;;;;;;;0.40;0.40;;;8.80;99.90;;;;;;5030948;28;20040;-69
2022/10/15 01:57:59;;;;;;;0.50;0.50;;;8.80;99.90;;;;;;5030704;28;20025;-71
2022/10/15 02:00:24;;;;;;;0.40;0.40;;;8.90;99.90;;;;;;5031160;28;20037;-71
2022/10/15 02:02:50;;;;;;;0.40;0.40;;;8.80;99.90;;;;;;5031121;28;20420;-70
2022/10/15 02:05:28;;;;;;;0.40;0.40;;;9.10;99.90;;;;;;5029196;28;20065;-71
2022/10/15 02:08:25;;;;;;;0.40;0.40;;;8.60;99.90;;;;;;5021071;28;20040;-71
2022/10/15 02:11:04;;;;;;;0.70;0.70;;;8.50;99.90;;;;;;5029905;28;20365;-70
2022/10/15 02:13:54;;;;;;;0.98;0.93;;;8.40;99.90;;;;;;5030224;28;20025;-71
2022/10/15 02:16:38;;;;;;;15.32;4.57;;;9.10;99.90;;;;;;5018511;28;20447;-71
2022/10/15 02:19:33;;;;;;;0.63;0.63;;;8.80;99.90;;;;;;5031374;28;20112;-71
2022/10/15 02:22:07;;;;;;;0.40;0.40;;;8.70;99.90;;;;;;5029965;28;20034;-71
2022/10/15 02:24:46;;;;;;;1.30;1.20;;;8.30;99.90;;;;;;5030709;28;20052;-70
2022/10/15 02:27:14;;;;;;;0.57;0.57;;;8.70;99.90;;;;;;5015993;28;20040;-72
2022/10/15 02:29:43;;;;;;;0.40;0.40;;;8.90;99.90;;;;;;5030523;28;20095;-71
2022/10/15 02:32:10;;;;;;;0.40;0.40;;;8.70;99.90;;;;;;5030389;28;20025;-71
2022/10/15 02:34:36;;;;;;;0.30;0.30;;;8.50;99.90;;;;;;5031204;28;20025;-71
2022/10/15 02:37:04;;;;;;;0.77;0.77;;;9.00;99.90;;;;;;5029128;28;20044;-71
2022/10/15 02:39:30;;;;;;;0.30;0.30;;;;;;;;;;5031157;28;20286;-70
2022/10/15 02:41:57;;;;;;;0.63;0.63;;;8.60;99.90;;;;;;5028374;28;20033;-70
2022/10/15 02:44:22;;;;;;;0.50;0.50;;;8.60;99.90;;;;;;5030466;28;20488;-71
2022/10/15 02:46:48;;;;;;;0.40;0.40;;;8.90;99.90;;;;;;5030110;28;20041;-71
2022/10/15 02:49:14;;;;;;;0.83;0.83;;;;;;;;;;5029895;28;20084;-72
2022/10/15 02:51:40;;;;;;;0.40;0.40;;;;;;;;;;5029852;28;20034;-72
2022/10/15 02:54:07;;;;;;;0.77;0.70;;;8.70;99.90;;;;;;5029972;28;20270;-70
2022/10/15 02:56:33;;;;;;;0.50;0.50;;;8.70;99.90;;;;;;5030462;28;20029;-70
2022/10/15 02:59:00;;;;;;;1.85;1.40;;;;;;;;;;5027538;28;20334;-71
2022/10/15 03:01:26;;;;;;;0.47;0.47;;;;;;;;;;5030662;28;20037;-70
2022/10/15 03:03:51;;;;;;;0.40;0.40;;;8.90;99.90;;;;;;5028961;28;20159;-71
2022/10/15 03:06:17;;;;;;;0.97;0.97;;;8.30;99.90;;;;;;5028213;28;20745;-71
2022/10/15 03:08:43;;;;;;;0.87;0.87;;;8.60;99.90;;;;;;5029205;28;20484;-70
2022/10/15 03:11:09;;;;;;;0.57;0.57;;;8.70;99.90;;;;;;5028669;28;20132;-71
2022/10/15 03:13:36;;;;;;;0.63;0.63;;;8.70;99.90;;;;;;5028710;28;20025;-70
2022/10/15 03:16:09;;;;;;;0.40;0.40;;;8.70;99.90;;;;;;5030042;28;20113;-71
2022/10/15 03:18:35;;;;;;;0.40;0.40;;;8.60;99.90;;;;;;5028890;28;20053;-71
2022/10/15 03:21:01;;;;;;;1.27;1.20;;;;;;;;;;5030830;28;20025;-71
2022/10/15 03:23:27;;;;;;;0.75;0.75;;;8.50;99.90;;;;;;5028313;28;20041;-72
2022/10/15 03:25:53;;;;;;;0.70;0.70;;;;;;;;;;5029763;28;20021;-71
2022/10/15 03:28:19;;;;;;;0.40;0.40;;;;;;;;;;5028432;28;20389;-71
2022/10/15 03:30:45;;;;;;;0.80;0.80;;;9.10;99.90;;;;;;5030034;28;20033;-71
2022/10/15 03:33:11;;;;;;;2.20;2.00;;;8.80;99.90;;;;;;5029788;28;20030;-71
2022/10/15 03:35:37;;;;;;;0.97;0.97;;;9.40;99.90;;;;;;5029996;28;20036;-70
2022/10/15 03:38:03;;;;;;;0.40;0.40;;;;;;;;;;5028810;28;20443;-71
2022/10/15 03:40:29;;;;;;;1.38;1.27;;;8.40;99.90;;;;;;5032002;28;20095;-71
2022/10/15 03:42:55;;;;;;;0.63;0.63;;;9.20;99.90;;;;;;5033456;28;20396;-71
2022/10/15 03:45:21;;;;;;;0.40;0.40;;;8.60;99.90;;;;;;5033186;28;20159;-69
2022/10/15 03:47:47;;;;;;;1.20;1.20;;;8.80;99.90;;;;;;5031927;28;20049;-70
2022/10/15 03:50:13;;;;;;;0.57;0.57;;;8.40;99.90;;;;;;5034495;28;20469;-69
2022/10/15 03:52:40;;;;;;;0.50;0.50;;;8.60;99.90;;;;;;5033389;28;20029;-71
2022/10/15 03:55:08;;;;;;;0.40;0.40;;;5.90;99.90;;;;;;5032731;28;20079;-71
2022/10/15 03:57:34;;;;;;;0.30;0.30;;;8.10;99.90;;;;;;5032349;28;20436;-71
2022/10/15 04:00:00;;;;;;;0.40;0.40;;;;;;;;;;5032463;28;20156;-70
2022/10/15 04:02:26;;;;;;;0.40;0.40;;;;;;;;;;5033375;28;20360;-69
2022/10/15 04:04:52;;;;;;;2.33;2.00;;;;;;;;;;5031457;28;20344;-70
2022/10/15 04:07:19;;;;;;;0.70;0.70;;;8.60;99.90;;;;;;5034627;28;20034;-71
2022/10/15 04:09:44;;;;;;;;;;;8.60;99.90;;;;;;5031622;28;20025;-71
2022/10/15 04:12:10;;;;;;;0.40;0.40;;;;;;;;;;5033705;28;20491;-71
2022/10/15 04:14:36;;;;;;;0.93;0.93;;;;;;;;;;5032817;28;20025;-71
2022/10/15 04:17:02;;;;;;;1.33;1.23;;;8.80;99.90;;;;;;5034556;28;20034;-72
2022/10/15 04:19:29;;;;;;;0.40;0.40;;;;;;;;;;5033178;28;20286;-71
2022/10/15 04:21:55;;;;;;;;;;;8.60;99.90;;;;;;5030772;28;20097;-71
2022/10/15 04:24:21;;;;;;;0.90;0.85;;;8.60;99.90;;;;;;5033483;28;19948;-71
2022/10/15 04:26:49;;;;;;;0.40;0.40;;;8.60;99.90;;;;;;5031551;28;20068;-71
2022/10/15 04:29:15;;;;;;;0.40;0.40;;;8.70;99.90;;;;;;5031734;28;20428;-71
2022/10/15 04:31:40;;;;;;;0.40;0.40;;;8.60;99.90;;;;;;5033403;28;20036;-71
2022/10/15 04:34:06;;;;;;;0.50;0.50;;;8.60;99.90;;;;;;5032912;28;20037;-70
2022/10/15 04:36:32;;;;;;;0.67;0.67;;;8.60;99.90;;;;;;5032018;28;20068;-72
2022/10/15 04:38:58;;;;;;;1.27;1.25;;;8.60;99.90;;;;;;5031135;28;20508;-71
2022/10/15 04:41:24;;;;;;;0.70;0.70;;;8.60;99.90;;;;;;5032790;28;20038;-71
2022/10/15 04:43:49;;;;;;;0.60;0.60;;;8.60;99.90;;;;;;5033297;28;20038;-72
2022/10/15 04:46:15;;;;;;;0.40;0.40;;;8.60;99.90;;;;;;5033158;28;20129;-71
2022/10/15 04:48:41;;;;;;;0.63;0.63;;;8.60;99.90;;;;;;5032227;28;20033;-72
2022/10/15 04:51:08;;;;;;;0.40;0.40;;;8.70;99.90;;;;;;5031954;28;20029;-70
2022/10/15 04:53:34;;;;;;;0.40;0.40;;;8.70;99.90;;;;;;5020997;28;20075;-70
2022/10/15 04:56:05;;;;;;;0.87;0.87;;;8.80;99.90;;;;;;5031941;28;20033;-70
2022/10/15 04:58:33;;;;;;;1.48;0.93;;;8.80;99.90;;;;;;5032623;28;20476;-70
2022/10/15 05:01:04;;;;;;;0.40;0.40;;;8.80;99.90;;;;;;5032610;28;20021;-71
2022/10/15 05:03:30;;;;;;;4.22;0.77;;;8.80;99.90;;;;;;5030907;28;20030;-70
2022/10/15 05:06:04;;;;;;;0.73;0.73;;;8.80;99.90;;;;;;5032823;28;20029;-71
2022/10/15 05:08:31;;;;;;;0.40;0.40;;;8.70;99.90;;;;;;5032007;28;20430;-70
2022/10/15 05:11:18;;;;;;;0.50;0.50;;;8.80;99.90;;;;;;5031115;28;20132;-70
2022/10/15 05:13:44;;;;;;;0.65;0.65;;;8.80;99.90;;;;;;5030971;28;20052;-71
2022/10/15 05:16:10;;;;;;;0.70;0.70;;;8.80;99.90;;;;;;5033292;28;20036;-71
2022/10/15 05:18:35;;;;;;;0.70;0.70;;;8.90;99.90;;;;;;5032176;28;20120;-71
2022/10/15 05:21:01;;;;;;;0.40;0.40;;;8.90;99.90;;;;;;5032385;28;20451;-71
2022/10/15 05:23:27;;;;;;;1.17;1.13;;;8.90;99.90;;;;;;5032432;28;20029;-72
2022/10/15 05:25:53;;;;;;;0.90;0.90;;;8.90;99.90;;;;;;5031663;28;20022;-71
2022/10/15 05:28:18;;;;;;;0.50;0.50;;;8.90;99.90;;;;;;5031028;28;20029;-71
2022/10/15 05:30:44;;;;;;;0.50;0.50;;;9.00;99.90;;;;;;5031905;28;20033;-71
2022/10/15 05:33:10;;;;;;;0.40;0.40;;;9.40;99.90;;;;;;5031896;28;20041;-70
2022/10/15 05:35:36;;;;;;;0.40;0.40;;;8.60;99.90;;;;;;5031666;28;20024;-69
2022/10/15 05:38:03;;;;;;;0.50;0.50;;;9.30;99.90;;;;;;5031883;28;20350;-71
2022/10/15 05:40:29;;;;;;;0.63;0.63;;;9.30;99.90;;;;;;5032073;28;20042;-70
2022/10/15 05:42:55;;;;;;;0.50;0.50;;;9.20;99.90;;;;;;5030288;28;20044;-71
2022/10/15 05:45:21;;;;;;;0.40;0.40;;;;;;;;;;5031628;28;20029;-71
2022/10/15 05:47:46;;;;;;;0.30;0.30;;;9.80;99.90;;;;;;5031844;28;20100;-71
2022/10/15 05:50:13;;;;;;;0.97;0.97;;;9.70;99.90;;;;;;5031942;28;20421;-71
2022/10/15 05:52:38;;;;;;;0.50;0.50;;;9.60;99.90;;;;;;5029741;28;20033;-70
2022/10/15 05:55:04;;;;;;;0.73;0.73;;;10.00;99.90;;;;;;5031560;28;20037;-70
2022/10/15 05:57:30;;;;;;;0.47;0.47;;;;;;;;;;5029219;28;20037;-70
2022/10/15 05:59:56;;;;;;;0.30;0.30;;;10.40;99.90;;;;;;5031219;28;20109;-70
2022/10/15 06:02:22;;;;;;;1.47;1.00;;;;;;;;;;5031456;28;20029;-72
2022/10/15 06:04:48;;;;;;;0.50;0.50;;;;;;;;;;5029971;28;20451;-72
2022/10/15 06:07:14;;;;;;;0.47;0.47;;;11.00;99.90;;;;;;5029074;28;20029;-71
2022/10/15 06:09:40;;;;;;;0.43;0.43;;;;;;;;;;5028900;28;20041;-71
2022/10/15 06:12:06;;;;;;;0.80;0.80;;;;;;;;;;5029882;28;20029;-70
2022/10/15 06:14:32;;;;;;;0.57;0.57;;;11.10;99.90;;;;;;5030902;28;20044;-71
2022/10/15 06:16:57;;;;;;;1.40;1.33;;;11.30;99.90;;;;;;5032181;28;20472;-70
2022/10/15 06:19:23;;;;;;;0.60;0.60;;;11.30;99.90;;;;;;5030980;28;20703;-71
2022/10/15 06:21:48;;;;;;;0.83;0.83;;;11.10;99.90;;;;;;5031308;28;20105;-72
2022/10/15 06:24:14;;;;;;;0.40;0.40;;;11.20;99.90;;;;;;5031631;28;20080;-72
2022/10/15 06:26:40;;;;;;;0.77;0.77;;;11.50;99.90;;;;;;5030076;28;20038;-70
2022/10/15 06:29:06;;;;;;;0.40;0.40;;;;;;;;;;5028773;28;20048;-70
2022/10/15 06:31:32;;;;;;;0.40;0.40;;;;;;;;;;5029978;28;20029;-71
2022/10/15 06:33:58;;;;;;;0.87;0.87;;;;;;;;;;5029602;28;20026;-70
2022/10/15 06:36:24;;;;;;;0.57;0.57;;;11.60;99.90;;;;;;5030610;28;20626;-70
2022/10/15 06:38:50;;;;;;;1.00;0.75;;;;;;;;;;5031343;28;20068;-70
2022/10/15 06:41:17;;;;;;;0.60;0.60;;;;;;;;;;5029546;28;20045;-70
2022/10/15 06:43:44;;;;;;;0.47;0.47;;;;;;;;;;5029859;28;20762;-71
2022/10/15 06:46:10;;;;;;;0.50;0.50;;;;;;;;;;5028628;28;20489;-70
2022/10/15 06:48:37;;;;;;;0.60;0.60;;;;;;;;;;5029147;28;20049;-70
2022/10/15 06:51:03;;;;;;;0.88;0.88;;;11.50;99.90;;;;;;5027355;28;20228;-70
2022/10/15 06:53:29;;;;;;;0.40;0.40;;;11.70;99.90;;;;;;5030335;28;20030;-70
2022/10/15 06:56:00;;;;;;;0.40;0.40;;;11.10;99.90;;;;;;5029197;28;20523;-71
2022/10/15 06:58:26;;;;;;;0.50;0.50;;;;;;;;;;5030307;28;20038;-72
2022/10/15 07:00:51;;;;;;;1.80;1.10;;;11.40;99.90;;;;;;5030088;28;20116;-72
2022/10/15 07:03:19;;;;;;;0.50;0.50;;;11.30;99.90;;;;;;5030501;28;20381;-70
2022/10/15 07:05:45;;;;;;;1.08;1.02;;;;;;;;;;5030176;28;20037;-70
2022/10/15 07:08:11;;;;;;;0.40;0.40;;;;;;;;;;5030595;28;20037;-70
2022/10/15 07:10:37;;;;;;;0.40;0.40;;;11.80;99.90;;;;;;5030273;28;20348;-70
2022/10/15 07:13:03;;;;;;;0.53;0.53;;;;;;;;;;5030479;28;20033;-71
2022/10/15 07:15:29;;;;;;;0.40;0.40;;;;;;;;;;5028750;28;20041;-71
2022/10/15 07:17:59;;;;;;;0.47;0.47;;;12.20;99.90;;;;;;5030387;28;20088;-70
2022/10/15 07:20:25;;;;;;;0.75;0.75;;;;;;;;;;5029957;28;20025;-69
2022/10/15 07:22:56;;;;;;;0.40;0.40;;;12.20;99.90;;;;;;5030033;28;20082;-70
2022/10/15 07:25:22;;;;;;;0.98;0.55;;;12.20;99.90;;;;;;5030453;28;20308;-70
2022/10/15 07:27:48;;;;;;;0.77;0.77;;;;;;;;;;5028608;28;20370;-71
2022/10/15 07:30:14;;;;;;;0.60;0.60;;;;;;;;;;5029967;28;20541;-71
2022/10/15 07:32:39;;;;;;;0.65;0.65;;;12.00;99.90;;;;;;5027308;28;20038;-70
2022/10/15 07:35:06;;;;;;;0.60;0.60;;;;;;;;;;5030482;28;20500;-69
2022/10/15 07:37:31;;;;;;;0.75;0.75;;;12.10;99.90;;;;;;5028350;28;20427;-71
2022/10/15 07:39:57;;;;;;;0.60;0.60;;;12.00;99.90;;;;;;5029874;28;20108;-70
2022/10/15 07:42:23;;;;;;;0.30;0.30;;;12.90;99.90;;;;;;5030085;28;20029;-72
2022/10/15 07:44:48;;;;;;;1.13;1.13;;;12.70;99.90;;;;;;5030378;28;20376;-71
2022/10/15 07:47:14;;;;;;;0.40;0.40;;;;;;;;;;5027448;28;20057;-70
2022/10/15 07:49:40;;;;;;;0.30;0.30;;;;;;;;;;5029296;28;20500;-70
2022/10/15 07:52:07;;;;;;;1.07;1.07;;;12.70;99.90;;;;;;5030120;28;20117;-70
2022/10/15 07:54:33;;;;;;;0.32;0.32;;;;;;;;;;5028706;28;20268;-71
2022/10/15 07:56:59;;;;;;;0.40;0.40;;;;;;;;;;5028908;28;20034;-71
2022/10/15 07:59:25;;;;;;;0.50;0.50;;;13.20;99.90;;;;;;5030057;28;20507;-71
2022/10/15 08:01:51;;;;;;;0.30;0.30;;;13.00;99.90;;;;;;5026363;28;20033;-71
2022/10/15 08:04:19;;;;;;;0.40;0.40;;;;;;;;;;5027710;28;20024;-70
2022/10/15 08:06:45;;;;;;;0.40;0.40;;;;;;;;;;5028860;28;20091;-72
2022/10/15 08:09:11;;;;;;;0.68;0.65;;;;;;;;;;5029134;28;20041;-72
2022/10/15 08:11:36;;;;;;;0.40;0.40;;;13.80;99.90;;;;;;5028141;28;20033;-72
2022/10/15 08:14:02;;;;;;;0.40;0.40;;;14.00;99.90;;;;;;5030151;28;20120;-72
2022/10/15 08:16:28;;;;;;;0.40;0.40;;;14.20;99.90;;;;;;5029565;28;20095;-71
2022/10/15 08:18:54;;;;;;;0.83;0.83;;;;;;;;;;5028755;28;20087;-71
2022/10/15 08:21:20;;;;;;;0.40;0.40;;;;;;;;;;5028117;28;20037;-72
2022/10/15 08:23:46;;;;;;;0.60;0.60;;;;;;;;;;5028001;28;20072;-72
2022/10/15 08:26:12;;;;;;;0.40;0.40;;;13.70;99.90;;;;;;5030200;28;20030;-71
2022/10/15 08:28:38;;;;;;;0.90;0.90;;;14.30;99.90;;;;;;5031516;28;20117;-70
2022/10/15 08:31:04;;;;;;;0.47;0.47;;;13.90;99.90;;;;;;5031941;28;20107;-71
2022/10/15 08:33:34;;;;;;;3.80;2.97;;;14.70;99.90;;;;;;5032731;28;20053;-72
2022/10/15 08:36:00;;;;;;;0.43;0.43;;;;;;;;;;5032312;28;20042;-71
2022/10/15 08:38:26;;;;;;;0.40;0.40;;;15.00;99.50;;;;;;5030830;28;20060;-72
2022/10/15 08:40:54;;;;;;;0.40;0.40;;;15.60;99.90;;;;;;5032068;28;20041;-71
2022/10/15 08:43:34;;;;;;;1.00;1.00;;;15.00;99.20;;;;;;5031391;28;20072;-72
2022/10/15 08:46:03;;;;;;;0.30;0.30;;;14.50;99.90;;;;;;5032379;28;20025;-71
2022/10/15 08:48:35;;;;;;;0.50;0.50;;;14.50;99.90;;;;;;5030273;28;20037;-71
2022/10/15 08:51:15;;;;;;;1.15;1.15;;;14.80;99.40;;;;;;5032716;28;20045;-70
2022/10/15 08:54:01;;;;;;;0.40;0.40;;;14.90;99.90;;;;;;5032818;28;20104;-70
2022/10/15 08:56:32;;;;;;;0.93;0.93;;;15.40;98.00;;;;;;5033344;28;20117;-70
2022/10/15 08:58:58;;;;;;;0.30;0.30;;;;;;;;;;5030879;28;20038;-71
2022/10/15 09:01:41;;;;;;;1.80;1.17;;;15.10;98.00;;;;;;5031756;28;20041;-72
2022/10/15 09:04:25;;;;;;;1.58;0.52;;;15.10;98.30;;;;;;5030119;28;20283;-71
2022/10/15 09:07:02;;;;;;;0.82;0.82;;;15.10;97.70;;;;;;5031786;28;20441;-71
2022/10/15 09:09:46;;;;;;;0.45;0.45;;;16.00;99.20;;;;;;5031777;28;20418;-71
2022/10/15 09:12:34;;;;;;;0.30;0.30;;;14.60;98.30;;;;;;5032881;28;20029;-72
2022/10/15 09:15:01;;;;;;;1.58;1.48;;;14.40;98.20;;;;;;5032809;28;20104;-71
2022/10/15 09:17:31;;;;;;;0.30;0.30;;;14.40;98.80;;;;;;5030480;28;20029;-70
2022/10/15 09:19:59;;;;;;;0.60;0.60;;;14.60;98.90;;;;;;5031718;28;20056;-70
2022/10/15 09:22:28;;;;;;;0.47;0.47;;;14.80;98.30;;;;;;5031859;28;20072;-70
2022/10/15 09:24:54;;;;;;;1.30;0.63;;;15.00;98.30;;;;;;5031086;28;20044;-70
2022/10/15 09:27:37;;;;;;;4.75;1.85;;;15.00;98.50;;;;;;5031722;28;20033;-70
2022/10/15 09:30:40;;;;;;;0.30;0.30;;;15.10;96.80;;;;;;5032298;28;20033;-71
2022/10/15 09:33:12;;;;;;;1.58;1.48;;;15.20;96.80;;;;;;5032152;28;20041;-69
2022/10/15 09:35:51;;;;;;;0.30;0.30;;;15.10;96.20;;;;;;5030095;28;20303;-71
2022/10/15 09:38:54;;;;;;;0.55;0.55;;;14.70;96.50;;;;;;5030966;28;20033;-71
2022/10/15 09:41:48;;;;;;;0.30;0.30;;;14.50;97.10;;;;;;5012779;28;20477;-71
2022/10/15 09:44:14;;;;;;;1.02;0.93;;;14.50;97.80;;;;;;5016489;28;20041;-70
2022/10/15 09:46:46;;;;;;;1.30;1.20;;;14.50;97.60;;;;;;5013235;28;20065;-71
2022/10/15 09:49:18;;;;;;;0.40;0.40;;;14.50;97.90;;;;;;5030457;28;20068;-71
2022/10/15 09:52:02;;;;;;;0.45;0.45;;;14.60;97.60;;;;;;5029193;28;20451;-71
2022/10/15 09:55:05;;;;;;;0.57;0.57;;;14.90;97.40;;;;;;5030095;28;20108;-71
2022/10/15 09:57:33;;;;;;;0.55;0.55;;;14.80;96.80;;;;;;5029749;28;20393;-71
2022/10/15 10:00:00;;;;;;;0.60;0.60;;;14.90;97.30;;;;;;5031667;28;20018;-70
2022/10/15 10:02:26;;;;;;;;;;;15.10;97.20;;;;;;5031543;28;20037;-71
2022/10/15 10:04:53;;;;;;;0.80;0.63;;;15.40;96.30;;;;;;5029982;28;19916;-71
2022/10/15 10:07:33;;;;;;;;;;;15.60;95.40;;;;;;5029106;28;20065;-71
2022/10/15 10:10:24;;;;;;;0.30;0.30;;;15.50;95.40;;;;;;5043926;28;19955;-71
2022/10/15 10:12:51;;;;;;;0.60;0.60;;;15.70;95.10;;;;;;5031259;28;20412;-72
2022/10/15 10:15:33;;;;;;;1.70;1.33;;;15.80;95.10;;;;;;5029751;28;20071;-70
2022/10/15 10:18:00;;;;;;;0.40;0.40;;;15.50;95.40;;;;;;5028578;28;20022;-70
2022/10/15 10:20:27;;;;;;;0.55;0.55;;;15.20;95.50;;;;;;5031101;28;20033;-72
2022/10/15 10:22:56;;;;;;;0.90;0.85;;;15.20;95.40;;;;;;5031175;28;20069;-72
2022/10/15 10:25:29;;;;;;;0.38;0.38;;;15.30;94.70;;;;;;5029889;28;20037;-72
2022/10/15 10:28:02;;;;;;;1.15;0.93;;;15.30;95.30;;;;;;5029617;28;20026;-70
2022/10/15 10:30:52;;;;;;;1.08;1.05;;;15.60;95.40;;;;;;5030652;28;20542;-70
2022/10/15 10:33:46;;;;;;;1.25;1.15;;;15.90;94.30;;;;;;5030945;28;20045;-73
2022/10/15 10:36:33;;;;;;;0.60;0.60;;;16.10;93.80;;;;;;5031534;28;20033;-70
2022/10/15 10:39:28;;;;;;;1.00;1.00;;;15.90;94.20;;;;;;5028550;28;20037;-71
2022/10/15 10:42:22;;;;;;;0.30;0.30;;;15.70;94.50;;;;;;5029293;28;20036;-70
2022/10/15 10:44:48;;;;;;;0.50;0.50;;;15.40;95.00;;;;;;5031481;28;20033;-70
2022/10/15 10:47:17;;;;;;;0.33;0.33;;;15.70;94.10;;;;;;5030556;28;20148;-70
2022/10/15 10:49:51;;;;;;;0.60;0.60;;;15.90;93.60;;;;;;5028566;28;20037;-70
2022/10/15 10:52:27;;;;;;;0.40;0.40;;;17.00;93.70;;;;;;5027910;28;21339;-71
2022/10/15 10:55:11;;;;;;;0.52;0.52;;;16.00;93.60;;;;;;5000550;28;20030;-70
2022/10/15 10:57:51;;;;;;;0.30;0.30;;;16.30;92.60;;;;;;5032165;28;20115;-71
2022/10/15 11:00:43;;;;;;;0.30;0.30;;;16.50;92.40;;;;;;5029717;28;20072;-71
2022/10/15 11:03:35;;;;;;;0.40;0.40;;;16.60;91.80;;;;;;5029952;28;20140;-72
2022/10/15 11:06:10;;;;;;;0.50;0.50;;;16.10;92.30;;;;;;5029436;28;20446;-71
2022/10/15 11:09:00;;;;;;;0.30;0.30;;;16.20;92.50;;;;;;5027700;28;20112;-72
2022/10/15 11:11:35;;;;;;;0.60;0.60;;;16.40;92.30;;;;;;5028564;28;20432;-70
2022/10/15 11:14:16;;;;;;;0.40;0.40;;;16.50;92.20;;;;;;5029372;28;20081;-72
2022/10/15 11:16:50;;;;;;;0.30;0.30;;;16.60;92.00;;;;;;5030900;28;20484;-71
2022/10/15 11:19:41;;;;;;;0.32;0.32;;;16.30;92.00;;;;;;5028852;28;20108;-70
2022/10/15 11:22:26;;;;;;;0.40;0.40;;;15.90;92.40;;;;;;5021999;28;20045;-70
2022/10/15 11:25:13;;;;;;;0.30;0.30;;;15.40;93.30;;;;;;5023998;28;20029;-71
2022/10/15 11:28:05;;;;;;;0.30;0.30;;;15.40;93.40;;;;;;5029837;28;20405;-71
2022/10/15 11:30:48;;;;;;;0.30;0.30;;;15.50;93.70;;;;;;5028958;28;20069;-71
2022/10/15 11:33:13;;;;;;;0.30;0.30;;;15.60;93.60;;;;;;5020404;28;20100;-71
2022/10/15 11:35:49;;;;;;;0.30;0.30;;;15.60;92.90;;;;;;5030148;28;20116;-71
2022/10/15 11:38:38;;;;;;;0.30;0.30;;;15.50;93.10;;;;;;5028539;28;20061;-71
2022/10/15 11:41:22;;;;;;;0.30;0.30;;;15.40;93.10;;;;;;5026377;28;20045;-71
2022/10/15 11:44:00;;;;;;;0.30;0.30;;;15.10;93.60;;;;;;5029496;28;20029;-71
2022/10/15 11:47:03;;;;;;;0.30;0.30;;;14.90;94.20;;;;;;5029295;28;20049;-71
2022/10/15 11:50:10;;;;;;;0.30;0.30;;;14.70;93.60;;;;;;5028132;28;20061;-70
2022/10/15 11:53:05;;;;;;;0.40;0.40;;;14.40;93.10;;;;;;5029264;28;20120;-69
2022/10/15 11:55:56;;;;;;;0.73;0.73;;;14.10;93.70;;;;;;5029108;28;20163;-70
2022/10/15 11:58:31;;;;;;;1.02;1.02;;;14.00;94.20;;;;;;5028261;28;20187;-69
2022/10/15 12:01:18;;;;;;;0.30;0.30;;;13.80;94.40;;;;;;5030957;28;20025;-70
2022/10/15 12:04:26;;;;;;;0.40;0.40;;;13.70;94.80;;;;;;5032655;28;20500;-69
2022/10/15 12:06:54;;;;;;;0.45;0.45;;;13.70;95.00;;;;;;5035518;28;20038;-70
2022/10/15 12:09:35;;;;;;;0.70;0.70;;;13.60;95.10;;;;;;5030763;28;20326;-70
2022/10/15 12:12:15;;;;;;;0.30;0.30;;;13.60;95.40;;;;;;5032243;28;20052;-70
2022/10/15 12:14:59;;;;;;;1.08;1.00;;;13.70;95.20;;;;;;5032955;28;20030;-71
2022/10/15 12:17:41;;;;;;;0.32;0.32;;;13.70;95.00;;;;;;5032712;28;20056;-72
2022/10/15 12:20:16;;;;;;;2.17;1.17;;;13.60;94.80;;;;;;5033919;28;20045;-70
2022/10/15 12:22:51;;;;;;;0.30;0.30;;;13.50;94.80;;;;;;5032996;28;20404;-69
2022/10/15 12:25:35;;;;;;;0.30;0.30;;;13.40;94.60;;;;;;5031335;28;20124;-70
2022/10/15 12:28:07;;;;;;;1.42;0.73;;;13.30;94.70;;;;;;5029789;28;20122;-70
2022/10/15 12:30:35;;;;;;;0.40;0.40;;;13.30;94.50;;;;;;5032542;28;20029;-70
2022/10/15 12:33:22;;;;;;;0.30;0.30;;;13.30;94.80;;;;;;5032778;28;20036;-70
2022/10/15 12:36:01;;;;;;;0.57;0.57;;;13.30;94.80;;;;;;5024164;28;20042;-70
2022/10/15 12:38:33;;;;;;;0.50;0.50;;;13.30;94.90;;;;;;5031392;28;20132;-71
2022/10/15 12:41:10;;;;;;;0.30;0.30;;;13.30;95.10;;;;;;5032794;28;20025;-70
2022/10/15 12:43:51;;;;;;;0.50;0.50;;;13.40;94.70;;;;;;5031931;28;20036;-69
2022/10/15 12:46:17;;;;;;;0.65;0.65;;;13.40;94.20;;;;;;5033219;28;20114;-70
2022/10/15 12:48:45;;;;;;;0.60;0.60;;;13.40;94.30;;;;;;5031751;28;20025;-70
2022/10/15 12:51:22;;;;;;;2.72;0.98;;;13.40;94.30;;;;;;5031546;28;20151;-70
2022/10/15 12:53:56;;;;;;;0.45;0.45;;;13.30;94.40;;;;;;5032364;28;20037;-70
2022/10/15 12:56:33;;;;;;;0.50;0.50;;;13.20;94.70;;;;;;5032279;28;20033;-69
2022/10/15 12:58:59;;;;;;;2.17;0.93;;;13.30;94.80;;;;;;5031949;28;20541;-70
2022/10/15 13:01:49;;;;;;;0.40;0.40;;;13.30;94.50;;;;;;5032155;28;20151;-70
2022/10/15 13:04:16;;;;;;;0.40;0.40;;;13.40;94.10;;;;;;5030440;28;20041;-70
2022/10/15 13:06:42;;;;;;;0.40;0.40;;;13.40;94.10;;;;;;5030585;28;20048;-71
2022/10/15 13:09:29;;;;;;;0.60;0.60;;;13.50;94.20;;;;;;5031179;28;20030;-70
2022/10/15 13:11:58;;;;;;;0.30;0.30;;;13.30;94.40;;;;;;5031825;28;20064;-69
2022/10/15 13:14:28;;;;;;;0.50;0.50;;;13.50;94.70;;;;;;5031681;28;20416;-70
2022/10/15 13:16:55;;;;;;;0.73;0.73;;;13.30;94.80;;;;;;5032868;28;20030;-71
2022/10/15 13:19:37;;;;;;;0.40;0.40;;;13.20;94.70;;;;;;5032376;28;20388;-70
2022/10/15 13:22:05;;;;;;;0.38;0.38;;;13.10;95.10;;;;;;5031823;28;20457;-70
2022/10/15 13:24:42;;;;;;;0.30;0.30;;;13.10;95.20;;;;;;5031383;28;20126;-71
2022/10/15 13:27:15;;;;;;;2.47;1.10;;;13.10;95.10;;;;;;5008342;28;20113;-70
2022/10/15 13:29:52;;;;;;;1.08;0.88;;;13.10;95.30;;;;;;5028840;28;20044;-69
2022/10/15 13:32:18;;;;;;;;;;;13.20;94.80;;;;;;5033202;28;20029;-70
2022/10/15 13:34:44;;;;;;;0.30;0.30;;;13.20;94.90;;;;;;5029924;28;19913;-71